Terminal Aerodrome Forecast
Issued by NWS Wichita, KS

Home | Current Version | Previous Version | Text Only | Print | Product List | Glossary Off
Versions: 1 2 3 4 5 6 7 8 9 10 11 12 13 14 15 16 17 18 19 20 21

901
FTUS43 KICT 270122 AAA
TAFICT
TAF AMD
KICT 270122Z 2701/2724 06011KT 6SM SHRA SCT015 OVC050
      TEMPO 2701/2703 VRB15G30KT 2SM +TSRA OVC015CB
     FM270300 03012KT 6SM BR OVC010
      TEMPO 2704/2706 4SM SHRA SCT010 OVC020
     FM270600 01012KT 4SM BR VCSH OVC005
     FM271500 36009KT P6SM SCT020=

USA.gov is the U.S. government's official web portal to all federal, state and local government web resources and services.